createdAt,value
2022-10-06T00:02:13.100Z,97830.91
2022-10-06T00:04:39.536Z,97842.59
2022-10-06T00:07:05.981Z,97836.94
2022-10-06T00:09:32.606Z,97836.00
2022-10-06T00:11:59.125Z,97847.75
2022-10-06T00:14:25.484Z,97833.59
2022-10-06T00:16:51.864Z,97849.25
2022-10-06T00:19:18.224Z,97858.78
2022-10-06T00:21:45.017Z,97851.34
2022-10-06T00:24:11.373Z,97855.84
2022-10-06T00:26:37.737Z,97855.69
2022-10-06T00:29:04.114Z,97861.72
2022-10-06T00:31:30.527Z,97868.50
2022-10-06T00:33:56.923Z,97876.38
2022-10-06T00:36:23.281Z,97878.72
2022-10-06T00:38:49.669Z,97870.91
2022-10-06T00:41:17.840Z,97876.88
2022-10-06T00:43:46.078Z,97894.59
2022-10-06T00:46:18.363Z,97897.69
2022-10-06T00:48:48.512Z,97880.22
2022-10-06T00:51:15.050Z,97882.53
2022-10-06T00:53:42.480Z,97898.72
2022-10-06T00:56:09.185Z,97895.28
2022-10-06T00:58:35.716Z,97892.84
2022-10-06T01:01:03.326Z,97898.25
2022-10-06T01:03:40.220Z,97896.72
2022-10-06T01:06:07.582Z,97911.66
2022-10-06T01:08:34.513Z,97913.19
2022-10-06T01:11:00.876Z,97928.09
2022-10-06T01:13:28.165Z,97917.03
2022-10-06T01:15:57.785Z,97944.13
2022-10-06T01:18:27.144Z,97940.00
2022-10-06T01:21:02.127Z,97952.16
2022-10-06T01:23:31.702Z,97964.00
2022-10-06T01:25:59.061Z,97965.38
2022-10-06T01:28:26.554Z,97966.47
2022-10-06T01:30:54.674Z,97968.31
2022-10-06T01:33:22.115Z,97972.47
2022-10-06T01:35:50.829Z,97966.00
2022-10-06T01:38:18.146Z,97975.38
2022-10-06T01:40:45.616Z,97987.53
2022-10-06T01:43:12.569Z,97987.22
2022-10-06T01:45:39.038Z,97985.66
2022-10-06T01:48:05.664Z,97994.13
2022-10-06T01:50:32.062Z,98001.78
2022-10-06T01:52:58.417Z,98005.44
2022-10-06T01:55:25.348Z,98008.81
2022-10-06T02:13:10.289Z,98004.97
2022-10-06T02:15:36.930Z,98010.69
2022-10-06T02:18:03.444Z,98011.56
2022-10-06T02:20:29.794Z,98012.75
2022-10-06T02:22:56.180Z,98016.69
2022-10-06T02:25:22.554Z,98016.59
2022-10-06T02:27:48.921Z,98032.53
2022-10-06T02:30:15.319Z,98039.44
2022-10-06T02:32:42.724Z,98033.50
2022-10-06T02:35:12.725Z,98046.09
2022-10-06T02:37:40.758Z,98027.47
2022-10-06T02:40:08.604Z,98042.72
2022-10-06T02:42:37.418Z,98049.78
2022-10-06T02:45:06.625Z,98041.53
2022-10-06T02:47:34.434Z,98034.81
2022-10-06T02:50:02.015Z,98068.81
2022-10-06T02:52:34.121Z,98061.88
2022-10-06T02:55:02.315Z,98054.88
2022-10-06T02:57:28.746Z,98036.69
2022-10-06T02:59:55.250Z,98046.28
2022-10-06T03:02:21.903Z,98046.09
2022-10-06T03:04:48.478Z,98056.94
2022-10-06T03:07:15.543Z,98057.38
2022-10-06T03:09:42.050Z,98066.31
2022-10-06T03:12:08.741Z,98063.53
2022-10-06T03:14:35.094Z,98064.63
2022-10-06T03:17:01.449Z,98087.31
2022-10-06T03:19:27.807Z,98083.00
2022-10-06T03:21:54.138Z,98080.59
2022-10-06T03:24:20.548Z,98093.34
2022-10-06T03:26:47.828Z,98099.53
2022-10-06T03:29:16.050Z,98107.06
2022-10-06T03:31:43.262Z,98101.00
2022-10-06T03:34:10.000Z,98105.13
2022-10-06T03:36:36.663Z,98105.53
2022-10-06T03:39:04.840Z,98120.09
2022-10-06T03:41:34.013Z,98115.00
2022-10-06T03:44:00.901Z,98124.56
2022-10-06T03:46:30.095Z,98132.56
2022-10-06T03:48:57.483Z,98130.63
2022-10-06T03:51:32.910Z,98141.84
2022-10-06T03:54:00.031Z,98148.91
2022-10-06T03:56:31.931Z,98150.81
2022-10-06T03:59:00.976Z,98165.41
2022-10-06T04:01:36.547Z,98147.34
2022-10-06T04:04:04.304Z,98171.31
2022-10-06T04:06:32.728Z,98167.31
2022-10-06T04:08:59.767Z,98171.38
2022-10-06T04:11:28.922Z,98167.88
2022-10-06T04:14:00.684Z,98183.63
2022-10-06T04:16:29.810Z,98182.38
2022-10-06T04:18:58.499Z,98197.75
2022-10-06T04:21:26.371Z,98203.13
2022-10-06T04:23:54.067Z,98197.75
2022-10-06T04:26:22.364Z,98203.69
2022-10-06T04:28:48.897Z,98211.59
2022-10-06T04:31:26.857Z,98200.63
2022-10-06T04:33:55.579Z,98210.69
2022-10-06T04:36:24.208Z,98221.59
2022-10-06T04:38:51.975Z,98209.97
2022-10-06T04:41:20.126Z,98218.63
2022-10-06T04:43:47.652Z,98229.25
2022-10-06T04:46:40.907Z,98232.00
2022-10-06T04:49:02.262Z,98226.16
2022-10-06T04:51:28.755Z,98229.63
2022-10-06T04:53:55.405Z,98239.19
2022-10-06T04:56:31.839Z,98241.78
2022-10-06T04:58:58.829Z,98239.53
2022-10-06T05:01:33.573Z,98250.72
2022-10-06T05:04:01.646Z,98248.97
2022-10-06T05:06:33.407Z,98264.88
2022-10-06T05:09:02.484Z,98260.03
2022-10-06T05:11:29.241Z,98274.16
2022-10-06T05:13:57.007Z,98278.94
2022-10-06T05:16:25.272Z,98281.59
2022-10-06T05:18:51.895Z,98287.84
2022-10-06T05:21:21.195Z,98289.25
2022-10-06T05:23:48.018Z,98287.25
2022-10-06T05:26:21.793Z,98284.75
2022-10-06T05:28:48.742Z,98291.00
2022-10-06T05:31:23.252Z,98292.44
2022-10-06T05:33:50.017Z,98294.00
2022-10-06T05:36:21.921Z,98303.94
2022-10-06T05:38:48.305Z,98301.41
2022-10-06T05:41:18.754Z,98318.03
2022-10-06T05:43:45.908Z,98318.81
2022-10-06T05:46:20.171Z,98310.19
2022-10-06T05:48:55.585Z,98329.31
2022-10-06T05:51:30.043Z,98327.06
2022-10-06T05:53:57.565Z,98326.28
2022-10-06T05:56:26.125Z,98336.66
2022-10-06T05:58:55.664Z,98319.88
2022-10-06T06:01:23.643Z,98327.41
2022-10-06T06:03:53.116Z,98347.13
2022-10-06T06:06:31.717Z,98341.16
2022-10-06T06:09:15.824Z,98332.66
2022-10-06T06:11:44.987Z,98343.00
2022-10-06T06:14:13.760Z,98348.13
2022-10-06T06:16:42.002Z,98354.38
2022-10-06T06:19:10.338Z,98366.22
2022-10-06T06:21:37.014Z,98369.06
2022-10-06T06:24:04.539Z,98383.84
2022-10-06T06:26:33.257Z,98373.19
2022-10-06T06:29:04.217Z,98383.72
2022-10-06T06:31:38.901Z,98400.31
2022-10-06T06:34:07.231Z,98399.53
2022-10-06T06:36:36.796Z,98398.47
2022-10-06T06:39:05.870Z,98406.03
2022-10-06T06:41:35.897Z,98424.84
2022-10-06T06:44:02.258Z,98421.97
2022-10-06T06:46:31.872Z,98419.31
2022-10-06T06:49:04.242Z,98440.09
2022-10-06T06:51:40.128Z,98450.44
2022-10-06T06:54:07.907Z,98441.09
2022-10-06T06:56:38.793Z,98451.13
2022-10-06T06:59:10.772Z,98451.78
2022-10-06T07:01:39.621Z,98445.53
2022-10-06T07:04:06.224Z,98452.63
2022-10-06T07:06:32.756Z,98462.38
2022-10-06T07:08:59.872Z,98459.97
2022-10-06T07:11:30.535Z,98477.28
2022-10-06T07:14:02.112Z,98474.19
2022-10-06T07:16:48.837Z,98470.31
2022-10-06T07:19:34.963Z,98481.28
2022-10-06T07:22:25.970Z,98490.44
2022-10-06T07:25:11.413Z,98478.66
2022-10-06T07:27:43.856Z,98489.94
2022-10-06T07:30:18.929Z,98494.97
2022-10-06T07:32:46.530Z,98494.53
2022-10-06T07:35:13.278Z,98495.09
2022-10-06T07:37:40.527Z,98508.34
2022-10-06T07:40:07.948Z,98494.84
2022-10-06T07:42:48.076Z,98515.41
2022-10-06T07:45:38.327Z,98515.75
2022-10-06T07:48:19.007Z,98510.34
2022-10-06T07:50:48.170Z,98518.94
2022-10-06T07:53:17.125Z,98516.97
2022-10-06T07:55:46.364Z,98519.03
2022-10-06T07:58:18.332Z,98517.75
2022-10-06T08:00:46.233Z,98528.41
2022-10-06T08:03:18.046Z,98535.38
2022-10-06T08:05:50.376Z,98520.94
2022-10-06T08:08:17.510Z,98539.75
2022-10-06T08:10:51.487Z,98549.13
2022-10-06T08:13:17.877Z,98536.44
2022-10-06T08:15:44.288Z,98547.22
2022-10-06T08:18:27.231Z,98541.81
2022-10-06T08:20:58.133Z,98556.31
2022-10-06T08:23:24.923Z,98559.31
2022-10-06T08:25:53.705Z,98549.06
2022-10-06T08:28:22.151Z,98554.72
2022-10-06T08:30:51.360Z,98568.88
2022-10-06T08:33:21.232Z,98568.19
2022-10-06T08:35:48.098Z,98576.44
2022-10-06T08:38:14.638Z,98570.94
2022-10-06T08:40:43.859Z,98565.50
2022-10-06T08:43:16.060Z,98584.00
2022-10-06T08:45:44.759Z,98589.28
2022-10-06T08:48:18.424Z,98587.31
2022-10-06T08:51:04.431Z,98583.44
2022-10-06T08:53:50.378Z,98578.56
2022-10-06T08:56:23.008Z,98586.69
2022-10-06T08:58:58.342Z,98580.91
2022-10-06T09:01:28.220Z,98606.28
2022-10-06T09:04:01.663Z,98599.16
2022-10-06T09:06:51.585Z,98609.53
2022-10-06T09:09:27.821Z,98615.16
2022-10-06T09:12:09.646Z,98618.16
2022-10-06T09:14:44.306Z,98612.94
2022-10-06T09:17:17.378Z,98603.81
2022-10-06T09:19:51.365Z,98615.72
2022-10-06T09:22:20.374Z,98621.66
2022-10-06T09:24:50.536Z,98619.53
2022-10-06T09:27:21.099Z,98626.84
2022-10-06T09:29:50.803Z,98622.28
2022-10-06T09:32:19.704Z,98626.16
2022-10-06T09:35:02.523Z,98630.75
2022-10-06T09:37:29.021Z,98625.97
2022-10-06T09:39:55.647Z,98615.78
2022-10-06T09:42:29.521Z,98631.91
2022-10-06T09:45:05.823Z,98628.44
2022-10-06T09:47:38.859Z,98618.72
2022-10-06T09:50:27.602Z,98634.78
2022-10-06T09:53:03.527Z,98631.75
2022-10-06T09:55:42.979Z,98627.59
2022-10-06T09:58:20.776Z,98630.03
2022-10-06T10:00:57.746Z,98632.31
2022-10-06T10:03:30.877Z,98623.38
2022-10-06T10:05:57.638Z,98621.59
2022-10-06T10:08:27.240Z,98612.75
2022-10-06T10:11:31.816Z,98636.47
2022-10-06T10:13:59.274Z,98647.69
2022-10-06T10:16:34.314Z,98632.00
2022-10-06T10:19:02.934Z,98626.31
2022-10-06T10:21:33.723Z,98631.19
2022-10-06T10:24:03.211Z,98636.53
2022-10-06T10:27:00.080Z,98629.13
2022-10-06T10:29:34.667Z,98648.84
2022-10-06T10:32:11.840Z,98633.22
2022-10-06T10:34:46.956Z,98640.22
2022-10-06T10:37:24.195Z,98635.16
2022-10-06T10:40:17.094Z,98642.16
2022-10-06T10:43:08.969Z,98651.34
2022-10-06T10:45:41.461Z,98640.25
2022-10-06T10:48:17.334Z,98649.88
2022-10-06T10:50:49.162Z,98651.78
2022-10-06T10:53:20.875Z,98650.56
2022-10-06T10:55:48.687Z,98653.06
2022-10-06T10:58:33.147Z,98646.03
2022-10-06T11:01:08.249Z,98637.47
2022-10-06T11:03:34.654Z,98642.13
2022-10-06T11:06:13.877Z,98648.69
2022-10-06T11:08:49.480Z,98646.91
2022-10-06T11:11:37.960Z,98636.63
2022-10-06T11:14:17.122Z,98643.25
2022-10-06T11:17:13.188Z,98633.81
2022-10-06T11:20:03.974Z,98643.94
2022-10-06T11:22:42.901Z,98642.91
2022-10-06T11:25:24.554Z,98645.44
2022-10-06T11:28:09.397Z,98640.50
2022-10-06T11:30:56.356Z,98635.81
2022-10-06T11:33:33.213Z,98642.81
2022-10-06T11:36:02.229Z,98636.03
2022-10-06T11:38:47.481Z,98626.63
2022-10-06T11:41:33.335Z,98634.09
2022-10-06T11:44:05.454Z,98627.22
2022-10-06T11:46:49.122Z,98624.03
2022-10-06T11:49:33.442Z,98628.47
2022-10-06T11:52:08.070Z,98623.56
2022-10-06T11:55:08.816Z,98615.41
2022-10-06T11:57:55.765Z,98613.06
2022-10-06T12:00:22.045Z,98616.28
2022-10-06T12:02:48.579Z,98618.59
2022-10-06T12:08:01.287Z,98616.28
2022-10-06T12:10:27.594Z,98612.50
2022-10-06T12:19:32.294Z,98595.16
2022-10-06T12:22:10.702Z,98591.59
2022-10-06T12:24:59.963Z,98601.06
2022-10-06T12:27:45.369Z,98598.66
2022-10-06T12:30:17.699Z,98601.53
2022-10-06T12:32:54.348Z,98597.97
2022-10-06T12:35:34.683Z,98602.06
2022-10-06T12:38:33.596Z,98599.53
2022-10-06T12:41:01.576Z,98583.44
2022-10-06T12:43:33.221Z,98590.41
2022-10-06T12:46:07.942Z,98587.78
2022-10-06T12:48:52.480Z,98589.06
2022-10-06T12:54:10.046Z,98587.88
2022-10-06T12:56:40.174Z,98572.97
2022-10-06T12:59:26.886Z,98586.03
2022-10-06T13:02:08.858Z,98571.72
2022-10-06T13:04:42.958Z,98589.91
2022-10-06T13:07:11.613Z,98578.31
2022-10-06T13:09:38.288Z,98582.97
2022-10-06T13:12:24.738Z,98577.81
2022-10-06T13:15:09.883Z,98575.56
2022-10-06T13:17:42.694Z,98560.56
2022-10-06T13:20:19.427Z,98571.88
2022-10-06T13:22:45.956Z,98558.00
2022-10-06T13:25:15.935Z,98571.84
2022-10-06T13:27:49.865Z,98572.63
2022-10-06T13:30:21.513Z,98558.28
2022-10-06T13:32:53.299Z,98549.38
2022-10-06T13:35:24.464Z,98553.84
2022-10-06T13:37:53.258Z,98549.34
2022-10-06T13:40:43.978Z,98562.06
2022-10-06T13:43:17.549Z,98562.84
2022-10-06T13:45:46.660Z,98565.44
2022-10-06T13:48:18.005Z,98549.25
2022-10-06T13:50:46.658Z,98564.03
2022-10-06T13:53:25.658Z,98556.59
2022-10-06T13:55:52.743Z,98558.72
2022-10-06T13:58:19.988Z,98565.47
2022-10-06T14:00:56.622Z,98560.16
2022-10-06T14:06:05.581Z,98567.13
2022-10-06T14:08:32.557Z,98543.47
2022-10-06T14:11:10.178Z,98552.91
2022-10-06T14:13:44.469Z,98561.09
2022-10-06T14:16:23.256Z,98558.75
2022-10-06T14:18:56.945Z,98554.16
2022-10-06T14:21:33.035Z,98560.09
2022-10-06T14:24:04.741Z,98550.16
2022-10-06T14:26:34.380Z,98555.53
2022-10-06T14:29:00.778Z,98548.94
2022-10-06T14:31:28.460Z,98553.53
2022-10-06T14:33:56.238Z,98551.31
2022-10-06T14:36:29.323Z,98554.53
2022-10-06T14:38:57.822Z,98545.41
2022-10-06T14:41:29.871Z,98546.19
2022-10-06T14:43:57.577Z,98543.09
2022-10-06T14:46:25.328Z,98537.19
2022-10-06T14:48:52.345Z,98523.00
2022-10-06T14:51:20.003Z,98540.47
2022-10-06T14:53:57.976Z,98539.50
2022-10-06T14:56:28.859Z,98532.81
2022-10-06T14:58:55.636Z,98528.44
2022-10-06T15:01:25.489Z,98530.00
2022-10-06T15:03:57.567Z,98536.16
2022-10-06T15:06:42.674Z,98522.41
2022-10-06T15:09:10.482Z,98538.25
2022-10-06T15:11:38.000Z,98519.13
2022-10-06T15:14:06.055Z,98533.78
2022-10-06T15:16:36.948Z,98528.81
2022-10-06T15:19:05.502Z,98532.63
2022-10-06T15:21:33.244Z,98520.94
2022-10-06T15:24:02.748Z,98528.16
2022-10-06T15:26:48.387Z,98520.56
2022-10-06T15:29:15.844Z,98513.63
2022-10-06T15:31:52.080Z,98525.34
2022-10-06T15:34:24.266Z,98508.97
2022-10-06T15:36:52.552Z,98516.16
2022-10-06T15:39:21.414Z,98515.16
2022-10-06T15:41:48.510Z,98514.59
2022-10-06T15:44:16.361Z,98510.47
2022-10-06T15:46:45.451Z,98511.19
2022-10-06T15:49:32.559Z,98520.63
2022-10-06T15:52:02.616Z,98505.44
2022-10-06T15:54:37.873Z,98522.22
2022-10-06T15:57:08.473Z,98524.63
2022-10-06T15:59:35.440Z,98518.94
2022-10-06T16:02:04.702Z,98520.38
2022-10-06T16:04:39.804Z,98522.50
2022-10-06T16:07:10.295Z,98503.94
2022-10-06T16:09:43.306Z,98522.88
2022-10-06T16:12:11.862Z,98528.00
2022-10-06T16:14:38.631Z,98527.66
2022-10-06T16:17:06.522Z,98521.34
2022-10-06T16:19:33.446Z,98514.56
2022-10-06T16:22:00.719Z,98519.69
2022-10-06T16:24:27.328Z,98522.41
2022-10-06T16:26:54.242Z,98523.03
2022-10-06T16:29:21.653Z,98523.88
2022-10-06T16:31:48.687Z,98529.88
2022-10-06T16:34:15.698Z,98523.50
2022-10-06T16:36:42.741Z,98511.75
2022-10-06T16:39:20.861Z,98509.22
2022-10-06T16:41:48.125Z,98522.19
2022-10-06T16:44:15.151Z,98514.06
2022-10-06T16:46:41.627Z,98520.84
2022-10-06T16:49:09.621Z,98510.88
2022-10-06T16:51:38.821Z,98537.19
2022-10-06T16:54:07.981Z,98530.75
2022-10-06T16:56:43.729Z,98524.53
2022-10-06T16:59:18.916Z,98531.44
2022-10-06T17:01:45.832Z,98530.72
2022-10-06T17:04:18.125Z,98523.06
2022-10-06T17:06:50.166Z,98525.97
2022-10-06T17:09:19.081Z,98539.78
2022-10-06T17:11:51.122Z,98519.34
2022-10-06T17:14:18.555Z,98531.56
2022-10-06T17:16:46.633Z,98537.38
2022-10-06T17:19:14.904Z,98531.66
2022-10-06T17:21:46.565Z,98539.72
2022-10-06T17:24:13.752Z,98541.81
2022-10-06T17:26:42.734Z,98546.06
2022-10-06T17:29:14.877Z,98539.88
2022-10-06T17:31:42.908Z,98536.50
2022-10-06T17:34:21.969Z,98526.41
2022-10-06T17:36:51.785Z,98537.31
2022-10-06T17:39:22.783Z,98545.94
2022-10-06T17:41:52.359Z,98546.44
2022-10-06T17:44:22.724Z,98544.66
2022-10-06T17:46:55.294Z,98543.34
2022-10-06T17:49:23.737Z,98555.56
2022-10-06T17:51:51.356Z,98556.09
2022-10-06T17:54:20.735Z,98543.66
2022-10-06T17:56:50.151Z,98558.19
2022-10-06T17:59:22.221Z,98550.91
2022-10-06T18:01:51.124Z,98548.84
2022-10-06T18:04:18.412Z,98554.53
2022-10-06T18:06:46.105Z,98547.28
2022-10-06T18:09:13.381Z,98547.56
2022-10-06T18:11:47.743Z,98552.47
2022-10-06T18:14:18.211Z,98557.94
2022-10-06T18:16:56.959Z,98559.72
2022-10-06T18:19:34.430Z,98557.38
2022-10-06T18:22:12.953Z,98558.69
2022-10-06T18:24:40.038Z,98559.97
2022-10-06T18:27:07.836Z,98547.25
2022-10-06T18:29:36.846Z,98542.31
2022-10-06T18:37:37.780Z,98555.78
2022-10-06T18:40:08.643Z,98548.78
2022-10-06T18:42:35.784Z,98533.69
2022-10-06T18:45:20.754Z,98545.38
2022-10-06T18:48:05.520Z,98553.63
2022-10-06T18:50:32.174Z,98533.38
2022-10-06T18:52:58.552Z,98531.56
2022-10-06T18:55:26.348Z,98549.41
2022-10-06T18:57:52.822Z,98540.06
2022-10-06T19:00:19.191Z,98540.06
2022-10-06T19:02:48.478Z,98545.22
2022-10-06T19:05:15.154Z,98536.13
2022-10-06T19:07:41.846Z,98536.13
2022-10-06T19:10:08.541Z,98536.63
2022-10-06T19:12:34.888Z,98549.88
2022-10-06T19:15:01.296Z,98550.09
2022-10-06T19:17:27.826Z,98536.31
2022-10-06T19:19:55.191Z,98545.16
2022-10-06T19:22:24.353Z,98542.78
2022-10-06T19:24:51.171Z,98550.31
2022-10-06T19:27:24.859Z,98555.97
2022-10-06T19:29:54.416Z,98560.63
2022-10-06T19:32:25.313Z,98545.56
2022-10-06T19:34:52.161Z,98551.50
2022-10-06T19:37:18.932Z,98546.81
2022-10-06T19:39:48.057Z,98557.13
2022-10-06T19:42:35.276Z,98547.63
2022-10-06T19:45:01.771Z,98545.00
2022-10-06T19:47:28.238Z,98526.03
2022-10-06T19:49:58.353Z,98550.13
2022-10-06T19:52:26.394Z,98564.31
2022-10-06T19:54:52.756Z,98558.34
2022-10-06T19:57:19.114Z,98534.97
2022-10-06T19:59:45.475Z,98542.22
2022-10-06T20:02:12.082Z,98548.69
2022-10-06T20:04:39.524Z,98547.41
2022-10-06T20:07:05.980Z,98553.63
2022-10-06T20:09:32.468Z,98556.19
2022-10-06T20:12:00.183Z,98549.41
2022-10-06T20:14:26.885Z,98541.66
2022-10-06T20:16:54.962Z,98556.94
2022-10-06T20:19:22.211Z,98556.38
2022-10-06T20:21:49.211Z,98548.09
2022-10-06T20:24:18.498Z,98538.72
2022-10-06T20:26:47.805Z,98560.50
2022-10-06T20:29:17.661Z,98557.09
2022-10-06T20:31:49.779Z,98553.97
2022-10-06T20:34:19.228Z,98564.56
2022-10-06T20:36:47.948Z,98554.22
2022-10-06T20:39:37.020Z,98568.22
2022-10-06T20:42:04.124Z,98541.00
2022-10-06T20:44:30.534Z,98554.69
2022-10-06T20:46:56.931Z,98550.75
2022-10-06T20:49:23.297Z,98549.00
2022-10-06T20:51:51.707Z,98551.63
2022-10-06T20:54:20.913Z,98546.91
2022-10-06T20:56:52.613Z,98538.88
2022-10-06T20:59:23.547Z,98543.78
2022-10-06T21:01:51.413Z,98534.94
2022-10-06T21:04:19.376Z,98533.81
2022-10-06T21:06:46.473Z,98532.50
2022-10-06T21:09:16.627Z,98533.53
2022-10-06T21:11:44.475Z,98523.19
2022-10-06T21:14:12.278Z,98533.59
2022-10-06T21:16:42.654Z,98523.53
2022-10-06T21:19:13.612Z,98530.75
2022-10-06T21:21:41.480Z,98518.44
2022-10-06T21:24:08.938Z,98515.09
2022-10-06T21:26:36.475Z,98526.03
2022-10-06T21:29:03.388Z,98520.75
2022-10-06T21:31:30.313Z,98522.06
2022-10-06T21:33:56.976Z,98510.44
2022-10-06T21:36:25.682Z,98514.38
2022-10-06T21:38:54.339Z,98512.50
2022-10-06T21:41:32.248Z,98524.38
2022-10-06T21:44:18.726Z,98512.19
2022-10-06T21:46:53.934Z,98512.97
2022-10-06T21:49:22.582Z,98485.69
2022-10-06T21:51:51.614Z,98514.78
2022-10-06T21:54:19.110Z,98507.00
2022-10-06T21:56:45.753Z,98493.25
2022-10-06T21:59:12.576Z,98491.16
2022-10-06T22:01:42.712Z,98497.81
2022-10-06T22:04:10.120Z,98494.72
2022-10-06T22:06:37.549Z,98494.63
2022-10-06T22:09:06.298Z,98500.09
2022-10-06T22:11:35.858Z,98488.69
2022-10-06T22:14:05.090Z,98490.47
2022-10-06T22:16:33.580Z,98500.31
2022-10-06T22:19:02.206Z,98494.38
2022-10-06T22:21:31.392Z,98496.47
2022-10-06T22:24:02.489Z,98496.03
2022-10-06T22:26:30.930Z,98487.22
2022-10-06T22:28:58.954Z,98482.78
2022-10-06T22:31:27.337Z,98470.84
2022-10-06T22:33:58.932Z,98481.22
2022-10-06T22:36:26.802Z,98475.19
2022-10-06T22:38:54.025Z,98477.91
2022-10-06T22:41:20.791Z,98486.44
2022-10-06T22:43:47.741Z,98482.09
2022-10-06T22:46:14.605Z,98467.88
2022-10-06T22:48:41.822Z,98463.28
2022-10-06T22:51:09.334Z,98470.31
2022-10-06T22:53:35.845Z,98462.13
2022-10-06T22:56:04.061Z,98464.72
2022-10-06T22:58:31.090Z,98451.22
2022-10-06T23:00:57.762Z,98460.16
2022-10-06T23:03:24.575Z,98450.22
2022-10-06T23:06:01.236Z,98464.72
2022-10-06T23:08:34.108Z,98451.72
2022-10-06T23:11:10.011Z,98458.75
2022-10-06T23:13:37.204Z,98436.13
2022-10-06T23:16:07.834Z,98452.56
2022-10-06T23:18:36.999Z,98455.91
2022-10-06T23:21:13.991Z,98452.38
2022-10-06T23:23:40.530Z,98435.75
2022-10-06T23:26:10.489Z,98442.16
2022-10-06T23:28:37.955Z,98437.50
2022-10-06T23:31:06.333Z,98441.13
2022-10-06T23:33:33.906Z,98438.09
2022-10-06T23:36:06.071Z,98435.50
2022-10-06T23:38:32.687Z,98426.69
2022-10-06T23:40:59.183Z,98437.13
2022-10-06T23:43:25.891Z,98423.97
2022-10-06T23:45:52.584Z,98430.44
2022-10-06T23:48:19.174Z,98434.03
2022-10-06T23:51:00.535Z,98420.91
2022-10-06T23:53:27.712Z,98427.16
2022-10-06T23:55:54.565Z,98425.53
2022-10-06T23:58:22.636Z,98420.75
